Time;durP1;ratioP1;P1;durP2;ratioP2;P2;SDS_P1;SDS_P2;PMS_P1;PMS_P2;Temp;Humidity;BMP_temperature;BMP_pressure;BME280_temperature;BME280_humidity;BME280_pressure;Samples;Min_cycle;Max_cycle;Signal;HPM_P1;HPM_P2
2022/01/28 00:00:08;;;;;;;13.87;7.60;;;3.30;99.90;;;;;;5034777;28;20049;-68
2022/01/28 00:02:57;;;;;;;18.13;7.47;;;3.30;99.90;;;;;;5034497;28;20132;-68
2022/01/28 00:05:25;;;;;;;16.67;7.60;;;3.30;99.90;;;;;;5034500;28;20072;-68
2022/01/28 00:07:55;;;;;;;15.93;7.67;;;3.30;99.90;;;;;;5034291;28;20115;-68
2022/01/28 00:10:25;;;;;;;17.87;9.00;;;3.40;99.90;;;;;;5034541;28;20497;-68
2022/01/28 00:15:42;;;;;;;15.03;8.23;;;3.40;99.90;;;;;;5033448;28;20046;-68
2022/01/28 00:38:00;;;;;;;8.77;4.73;;;3.60;99.90;;;;;;5033672;28;20424;-68
2022/01/28 00:40:28;;;;;;;10.82;4.72;;;3.60;99.90;;;;;;5033518;28;20057;-68
2022/01/28 00:42:55;;;;;;;11.30;4.97;;;3.70;99.90;;;;;;5033548;28;20561;-68
2022/01/28 00:45:23;;;;;;;8.40;4.23;;;3.70;99.90;;;;;;5033206;28;20063;-68
2022/01/28 00:47:50;;;;;;;11.27;4.90;;;3.70;99.90;;;;;;5033679;28;20134;-68
2022/01/28 00:50:17;;;;;;;9.60;4.60;;;3.80;99.90;;;;;;5032475;28;20521;-68
2022/01/28 00:52:44;;;;;;;8.03;3.90;;;3.80;99.90;;;;;;5033598;28;20088;-68
2022/01/28 00:55:12;;;;;;;7.17;3.93;;;3.80;99.90;;;;;;5033990;28;20136;-68
2022/01/28 00:57:40;;;;;;;8.93;3.87;;;3.80;99.90;;;;;;5033287;28;20049;-68
2022/01/28 01:00:10;;;;;;;7.07;3.50;;;3.80;99.90;;;;;;5033319;28;20139;-68
2022/01/28 01:02:37;;;;;;;10.03;4.07;;;3.80;99.90;;;;;;5033367;28;20088;-68
2022/01/28 01:05:04;;;;;;;9.97;4.23;;;3.90;99.90;;;;;;5032891;28;20497;-68
2022/01/28 01:07:31;;;;;;;9.23;3.70;;;3.80;99.90;;;;;;5033217;28;20088;-68
2022/01/28 01:09:58;;;;;;;10.87;3.40;;;3.80;99.90;;;;;;5033070;28;20084;-68
2022/01/28 01:12:27;;;;;;;7.37;3.10;;;3.80;99.90;;;;;;5032890;28;20140;-68
2022/01/28 01:14:55;;;;;;;8.33;2.90;;;3.90;99.90;;;;;;5032848;28;20139;-68
2022/01/28 01:17:30;;;;;;;6.90;2.97;;;3.90;99.90;;;;;;5032869;28;20132;-68
2022/01/28 01:20:11;;;;;;;8.00;3.30;;;3.80;99.90;;;;;;5032956;28;20413;-68
2022/01/28 01:22:40;;;;;;;6.77;3.20;;;3.90;99.90;;;;;;5032994;28;20058;-68
2022/01/28 01:25:16;;;;;;;6.87;3.40;;;3.90;99.90;;;;;;5032535;28;20563;-68
2022/01/28 01:27:47;;;;;;;8.25;3.47;;;3.80;99.90;;;;;;5033095;28;20107;-68
2022/01/28 01:30:18;;;;;;;8.43;3.63;;;3.80;99.90;;;;;;5032682;28;20437;-68
2022/01/28 01:32:45;;;;;;;8.27;4.60;;;3.80;99.90;;;;;;5032673;28;20050;-68
2022/01/28 01:35:12;;;;;;;10.23;3.87;;;3.90;99.90;;;;;;5032184;28;20049;-68
2022/01/28 01:37:39;;;;;;;9.23;4.53;;;3.80;99.90;;;;;;5032473;28;20533;-68
2022/01/28 01:40:07;;;;;;;10.17;4.50;;;3.80;99.90;;;;;;5032500;28;20080;-69
2022/01/28 01:42:42;;;;;;;11.00;4.70;;;3.80;99.90;;;;;;5032672;28;20078;-69
2022/01/28 01:53:22;;;;;;;7.97;3.80;;;3.80;99.90;;;;;;5032297;28;20056;-69
2022/01/28 01:55:49;;;;;;;9.33;4.20;;;3.80;99.90;;;;;;5032057;28;20049;-69
2022/01/28 01:58:19;;;;;;;13.70;4.70;;;3.70;99.90;;;;;;5032453;28;20057;-68
2022/01/28 02:00:46;;;;;;;9.33;4.10;;;3.70;99.90;;;;;;5032227;28;20140;-68
2022/01/28 02:03:14;;;;;;;10.93;4.47;;;3.70;99.90;;;;;;5031950;28;20521;-68
2022/01/28 02:05:41;;;;;;;9.80;4.03;;;3.60;99.90;;;;;;5031678;28;20482;-69
2022/01/28 02:08:08;;;;;;;11.53;4.90;;;3.60;99.90;;;;;;5031974;28;20084;-69
2022/01/28 02:10:36;;;;;;;11.30;5.00;;;3.40;99.90;;;;;;5031890;28;20458;-68
2022/01/28 02:13:03;;;;;;;14.00;5.87;;;3.40;99.90;;;;;;5031978;28;20053;-68
2022/01/28 02:15:30;;;;;;;13.20;5.67;;;3.40;99.90;;;;;;5031630;28;20565;-69
2022/01/28 02:17:59;;;;;;;15.43;6.17;;;3.30;99.90;;;;;;5032017;28;20091;-69
2022/01/28 02:20:32;;;;;;;12.90;6.10;;;3.30;99.90;;;;;;5032098;28;20061;-69
2022/01/28 02:22:59;;;;;;;16.80;6.47;;;3.30;99.90;;;;;;5031818;28;20466;-69
2022/01/28 02:25:27;;;;;;;15.30;6.27;;;3.20;99.90;;;;;;5031291;28;20099;-68
2022/01/28 02:27:56;;;;;;;15.63;6.67;;;3.30;99.90;;;;;;5031680;28;20068;-68
2022/01/28 02:30:23;;;;;;;13.13;6.50;;;3.30;99.90;;;;;;5031666;28;20421;-68
2022/01/28 02:32:51;;;;;;;11.67;5.77;;;3.40;99.90;;;;;;5031794;28;20085;-69
2022/01/28 02:35:18;;;;;;;12.77;5.90;;;3.50;99.90;;;;;;5031411;28;20085;-69
2022/01/28 02:37:46;;;;;;;14.30;6.53;;;3.50;99.90;;;;;;5032010;28;20088;-69
2022/01/28 02:40:13;;;;;;;10.00;5.30;;;3.50;99.90;;;;;;5032037;28;20407;-69
2022/01/28 02:42:54;;;;;;;13.00;5.50;;;3.50;99.90;;;;;;5032054;28;20152;-69
2022/01/28 02:45:33;;;;;;;14.27;5.93;;;3.40;99.90;;;;;;5031610;28;20143;-68
2022/01/28 02:48:02;;;;;;;12.53;5.00;;;3.50;99.90;;;;;;5031584;28;20065;-68
2022/01/28 02:50:34;;;;;;;12.60;6.50;;;3.40;99.90;;;;;;5031533;28;20049;-69
2022/01/28 02:53:06;;;;;;;11.90;5.10;;;3.40;99.90;;;;;;5031729;28;20057;-69
2022/01/28 02:55:37;;;;;;;11.33;5.03;;;3.40;99.90;;;;;;5031407;28;20049;-69
2022/01/28 02:58:17;;;;;;;12.20;4.97;;;3.30;99.90;;;;;;5031906;28;20148;-69
2022/01/28 03:00:46;;;;;;;10.17;4.30;;;3.30;99.90;;;;;;5031550;28;20485;-69
2022/01/28 03:03:14;;;;;;;15.30;4.70;;;3.20;99.90;;;;;;5031583;28;20521;-69
2022/01/28 03:05:42;;;;;;;14.30;4.47;;;3.20;99.90;;;;;;5031051;28;20056;-69
2022/01/28 03:08:10;;;;;;;10.20;4.90;;;3.20;99.90;;;;;;5031616;28;20152;-69
2022/01/28 03:11:11;;;;;;;9.27;3.73;;;3.20;99.90;;;;;;5031909;28;20049;-69
2022/01/28 03:13:59;;;;;;;8.00;3.27;;;3.20;99.90;;;;;;5032795;28;20053;-68
2022/01/28 03:16:28;;;;;;;16.35;4.95;;;3.40;99.90;;;;;;5035068;28;20053;-69
2022/01/28 03:18:59;;;;;;;10.73;4.00;;;3.30;99.90;;;;;;5035334;28;20520;-69
2022/01/28 03:21:39;;;;;;;9.60;3.43;;;3.20;99.90;;;;;;5035184;28;20132;-69
2022/01/28 03:24:09;;;;;;;10.23;3.40;;;3.30;99.90;;;;;;5035210;28;20053;-69
2022/01/28 03:26:36;;;;;;;9.57;3.80;;;3.30;99.90;;;;;;5034956;28;20053;-69
2022/01/28 03:29:04;;;;;;;7.03;3.10;;;3.30;99.90;;;;;;5035182;28;20096;-69
2022/01/28 03:31:31;;;;;;;7.47;2.87;;;3.40;99.90;;;;;;5035082;28;20137;-69
2022/01/28 03:33:59;;;;;;;7.97;3.27;;;3.30;99.90;;;;;;5034843;28;20045;-69
2022/01/28 03:36:25;;;;;;;9.77;3.00;;;3.30;99.90;;;;;;5034628;28;20233;-69
2022/01/28 03:38:52;;;;;;;9.10;3.00;;;3.30;99.90;;;;;;5035010;28;20084;-69
2022/01/28 03:41:23;;;;;;;9.87;3.30;;;3.40;99.90;;;;;;5034994;28;20562;-69
2022/01/28 03:43:50;;;;;;;6.30;2.67;;;3.40;99.90;;;;;;5034813;28;20111;-69
2022/01/28 03:46:17;;;;;;;10.20;2.53;;;3.50;99.90;;;;;;5034404;28;20477;-69
2022/01/28 03:48:44;;;;;;;9.07;3.10;;;3.40;99.90;;;;;;5034628;28;20140;-69
2022/01/28 03:51:11;;;;;;;14.93;2.60;;;3.40;99.90;;;;;;5034602;28;20494;-69
2022/01/28 03:53:38;;;;;;;9.37;2.53;;;3.50;99.90;;;;;;5034449;28;20105;-69
2022/01/28 03:56:05;;;;;;;8.33;1.90;;;3.50;99.90;;;;;;5034367;28;20149;-69
2022/01/28 03:58:34;;;;;;;12.43;2.43;;;3.50;99.90;;;;;;5034776;28;20454;-69
2022/01/28 04:01:03;;;;;;;7.13;2.10;;;3.50;99.90;;;;;;5034548;28;20119;-69
2022/01/28 04:03:49;;;;;;;11.33;2.23;;;3.50;99.90;;;;;;5034530;28;20053;-69
2022/01/28 04:11:46;;;;;;;11.17;2.30;;;3.50;99.90;;;;;;5011764;28;20085;-69
2022/01/28 04:14:21;;;;;;;11.43;2.43;;;3.50;99.90;;;;;;5034569;28;20057;-69
2022/01/28 04:19:32;;;;;;;7.20;2.13;;;3.50;99.90;;;;;;5034367;28;20152;-69
2022/01/28 04:21:59;;;;;;;8.67;3.00;;;3.50;99.90;;;;;;5034277;28;20144;-69
2022/01/28 04:24:26;;;;;;;6.60;2.60;;;3.50;99.90;;;;;;5033964;28;20506;-69
2022/01/28 04:26:53;;;;;;;13.40;3.80;;;3.50;99.90;;;;;;5033834;28;20137;-68
2022/01/28 04:29:21;;;;;;;8.20;3.30;;;3.50;99.90;;;;;;5034068;28;20140;-68
2022/01/28 04:31:48;;;;;;;7.47;2.67;;;3.60;99.90;;;;;;5033834;28;20540;-68
2022/01/28 04:34:16;;;;;;;9.47;2.57;;;3.60;99.90;;;;;;5033746;28;20117;-68
2022/01/28 04:36:52;;;;;;;9.27;2.53;;;3.50;99.90;;;;;;5033492;28;20049;-68
2022/01/28 04:39:25;;;;;;;9.40;3.27;;;3.50;99.90;;;;;;5033918;28;20497;-68
2022/01/28 04:42:01;;;;;;;8.50;2.90;;;3.60;99.90;;;;;;5034308;28;20067;-69
2022/01/28 04:44:37;;;;;;;12.90;3.00;;;3.50;99.90;;;;;;5033901;28;20489;-68
2022/01/28 04:47:11;;;;;;;6.70;2.65;;;3.50;99.90;;;;;;5033810;28;20053;-68
2022/01/28 04:49:51;;;;;;;6.73;2.77;;;3.40;99.90;;;;;;5034106;28;20057;-70
2022/01/28 04:52:49;;;;;;;6.70;2.60;;;3.40;99.90;;;;;;5033853;28;20115;-68
2022/01/28 04:55:30;;;;;;;8.75;2.70;;;3.30;99.90;;;;;;5033856;28;20045;-68
2022/01/28 04:58:10;;;;;;;11.20;3.40;;;3.20;99.90;;;;;;5033719;28;20057;-68
2022/01/28 05:00:48;;;;;;;13.03;3.00;;;3.20;99.90;;;;;;5033438;28;20117;-68
2022/01/28 05:14:38;;;;;;;8.90;3.20;;;3.20;99.90;;;;;;5010152;28;20041;-68
2022/01/28 05:23:17;;;;;;;8.37;3.23;;;3.10;99.90;;;;;;5032892;28;20144;-68
2022/01/28 05:26:00;;;;;;;7.73;3.00;;;3.20;99.90;;;;;;5032604;28;20048;-68
2022/01/28 05:28:27;;;;;;;12.83;4.00;;;3.30;99.90;;;;;;5032810;28;20060;-68
2022/01/28 05:30:54;;;;;;;10.93;4.10;;;3.20;99.90;;;;;;5032897;28;20057;-68
2022/01/28 05:33:22;;;;;;;14.07;3.70;;;3.20;99.90;;;;;;5032508;28;20557;-68
2022/01/28 05:35:49;;;;;;;11.83;3.47;;;3.30;99.90;;;;;;5032088;28;20532;-68
2022/01/28 05:38:16;;;;;;;10.23;3.70;;;3.30;99.90;;;;;;5032536;28;20137;-69
2022/01/28 05:40:43;;;;;;;13.00;3.77;;;3.30;99.90;;;;;;5032651;28;20057;-68
2022/01/28 05:43:10;;;;;;;10.93;3.67;;;3.30;99.90;;;;;;5032628;28;20099;-69
2022/01/28 05:45:37;;;;;;;11.33;3.40;;;3.30;99.90;;;;;;5032352;28;20140;-69
2022/01/28 05:48:04;;;;;;;9.57;3.03;;;3.30;99.90;;;;;;5032307;28;20049;-69
2022/01/28 05:50:32;;;;;;;7.93;2.90;;;3.30;99.90;;;;;;5032758;28;20127;-69
2022/01/28 05:53:02;;;;;;;9.70;2.93;;;3.30;99.90;;;;;;5032284;28;20048;-69
2022/01/28 05:55:28;;;;;;;14.73;3.50;;;3.30;99.90;;;;;;5032036;28;20577;-69
2022/01/28 05:57:55;;;;;;;7.60;3.10;;;3.30;99.90;;;;;;5032392;28;20128;-69
2022/01/28 06:00:22;;;;;;;13.77;4.73;;;3.30;99.90;;;;;;5032325;28;20232;-69
2022/01/28 06:02:49;;;;;;;10.13;3.40;;;3.30;99.90;;;;;;5032290;28;20569;-69
2022/01/28 06:05:17;;;;;;;9.17;3.37;;;3.30;99.90;;;;;;5032300;28;20152;-69
2022/01/28 06:07:46;;;;;;;10.83;3.80;;;3.30;99.90;;;;;;5038193;28;20061;-69
2022/01/28 06:10:15;;;;;;;11.83;3.00;;;3.30;99.90;;;;;;5040012;28;20053;-69
2022/01/28 06:12:42;;;;;;;9.63;4.47;;;3.30;99.90;;;;;;5040502;28;20057;-69
2022/01/28 06:15:11;;;;;;;10.73;3.60;;;3.20;99.90;;;;;;5039152;28;20052;-69
2022/01/28 06:17:38;;;;;;;14.63;4.13;;;3.20;99.90;;;;;;5039933;28;20107;-69
2022/01/28 06:20:08;;;;;;;12.13;3.30;;;3.20;99.90;;;;;;5040344;28;20502;-69
2022/01/28 06:22:39;;;;;;;11.50;4.10;;;3.20;99.90;;;;;;5040416;28;20053;-70
2022/01/28 06:25:08;;;;;;;10.17;3.70;;;3.10;99.90;;;;;;5037692;28;20049;-69
2022/01/28 06:27:37;;;;;;;15.93;3.70;;;3.00;99.90;;;;;;5034461;28;20081;-71
2022/01/28 06:30:05;;;;;;;16.60;4.17;;;3.00;99.90;;;;;;5031791;28;20053;-70
2022/01/28 06:32:33;;;;;;;11.40;3.23;;;3.00;99.90;;;;;;5031760;28;20132;-70
2022/01/28 06:35:01;;;;;;;8.20;2.40;;;3.00;99.90;;;;;;5031432;28;20063;-70
2022/01/28 06:37:28;;;;;;;8.80;3.07;;;3.00;99.90;;;;;;5032108;28;20041;-70
2022/01/28 06:39:54;;;;;;;15.23;3.23;;;3.10;99.90;;;;;;5031664;28;20140;-70
2022/01/28 06:42:23;;;;;;;12.67;2.80;;;3.00;99.90;;;;;;5031499;28;20470;-70
2022/01/28 06:44:50;;;;;;;14.70;2.93;;;3.00;99.90;;;;;;5031390;28;20391;-70
2022/01/28 06:47:16;;;;;;;14.70;3.70;;;3.00;99.90;;;;;;5031403;28;20049;-70
2022/01/28 06:49:43;;;;;;;7.93;2.77;;;2.90;99.90;;;;;;5034672;28;20136;-70
2022/01/28 06:52:10;;;;;;;11.73;2.50;;;2.90;99.90;;;;;;5035976;28;20372;-70
2022/01/28 06:54:37;;;;;;;11.43;2.30;;;2.90;99.90;;;;;;5035429;28;20136;-70
2022/01/28 06:57:05;;;;;;;13.50;2.77;;;2.90;99.90;;;;;;5035507;28;20057;-70
2022/01/28 06:59:33;;;;;;;15.43;3.23;;;2.90;99.90;;;;;;5035736;28;20155;-70
2022/01/28 07:02:00;;;;;;;12.40;2.73;;;2.80;99.90;;;;;;5035906;28;20545;-70
2022/01/28 07:04:27;;;;;;;7.80;2.30;;;2.90;99.90;;;;;;5035523;28;20132;-70
2022/01/28 07:06:54;;;;;;;8.13;2.27;;;3.00;99.90;;;;;;5035355;28;20514;-70
2022/01/28 07:09:21;;;;;;;8.23;2.00;;;3.00;99.90;;;;;;5035097;28;20057;-70
2022/01/28 07:11:48;;;;;;;5.77;1.80;;;3.10;99.90;;;;;;5035270;28;20487;-70
2022/01/28 07:14:14;;;;;;;8.87;2.00;;;3.20;99.90;;;;;;5035065;28;20480;-70
2022/01/28 07:16:43;;;;;;;4.80;1.77;;;3.20;99.90;;;;;;5035031;28;20136;-70
2022/01/28 07:19:10;;;;;;;8.77;2.27;;;3.20;99.90;;;;;;5035430;28;20053;-70
2022/01/28 07:21:37;;;;;;;10.93;2.70;;;3.20;99.90;;;;;;5036116;28;20113;-70
2022/01/28 07:24:04;;;;;;;9.37;2.47;;;3.30;99.90;;;;;;5037584;28;20252;-70
2022/01/28 07:26:31;;;;;;;10.53;2.93;;;3.30;99.90;;;;;;5036281;28;20140;-70
2022/01/28 07:28:58;;;;;;;7.83;1.80;;;3.30;99.90;;;;;;5035149;28;20481;-70
2022/01/28 07:31:25;;;;;;;14.77;2.00;;;3.30;99.90;;;;;;5035159;28;20455;-70
2022/01/28 07:33:54;;;;;;;9.20;2.63;;;3.30;99.90;;;;;;5035120;28;20049;-70
2022/01/28 07:36:21;;;;;;;13.13;2.20;;;3.30;99.90;;;;;;5034349;28;20572;-70
2022/01/28 07:38:48;;;;;;;14.20;2.50;;;3.30;99.90;;;;;;5034750;28;20565;-69
2022/01/28 07:41:14;;;;;;;9.57;1.70;;;3.30;99.90;;;;;;5034800;28;20482;-70
2022/01/28 07:43:42;;;;;;;5.17;1.60;;;3.40;99.90;;;;;;5034389;28;20103;-70
2022/01/28 07:46:09;;;;;;;10.17;2.10;;;3.40;99.90;;;;;;5034666;28;20057;-70
2022/01/28 07:48:36;;;;;;;7.93;2.07;;;3.40;99.90;;;;;;5035089;28;20061;-70
2022/01/28 07:51:04;;;;;;;8.73;2.03;;;3.40;99.90;;;;;;5034926;28;20134;-70
2022/01/28 07:53:31;;;;;;;9.30;1.63;;;3.40;99.90;;;;;;5034613;28;20585;-69
2022/01/28 07:55:58;;;;;;;7.63;1.87;;;3.40;99.90;;;;;;5034126;28;20041;-70
2022/01/28 07:58:25;;;;;;;9.67;1.57;;;3.40;99.90;;;;;;5034185;28;20497;-70
2022/01/28 08:00:52;;;;;;;5.50;1.60;;;3.50;99.90;;;;;;5033707;28;20128;-70
2022/01/28 08:03:19;;;;;;;10.33;3.00;;;3.50;99.90;;;;;;5034189;28;20140;-70
2022/01/28 08:05:45;;;;;;;7.67;1.40;;;3.50;99.90;;;;;;5034534;28;20093;-70
2022/01/28 08:08:18;;;;;;;13.40;2.03;;;3.60;99.90;;;;;;5034685;28;20514;-70
2022/01/28 08:10:46;;;;;;;10.00;1.70;;;3.70;99.90;;;;;;5034465;28;20139;-70
2022/01/28 08:13:13;;;;;;;10.03;1.60;;;3.80;99.90;;;;;;5034267;28;20104;-70
2022/01/28 08:15:40;;;;;;;8.73;1.90;;;4.00;99.90;;;;;;5033802;28;20136;-70
2022/01/28 08:18:07;;;;;;;8.07;1.40;;;4.00;99.90;;;;;;5033718;28;20137;-70
2022/01/28 08:20:34;;;;;;;6.67;1.60;;;4.10;99.90;;;;;;5034144;28;20054;-70
2022/01/28 08:23:03;;;;;;;8.17;2.00;;;4.20;99.90;;;;;;5033924;28;20118;-70
2022/01/28 08:25:33;;;;;;;7.07;1.53;;;4.20;99.90;;;;;;5034342;28;20050;-70
2022/01/28 08:28:00;;;;;;;8.63;1.60;;;4.10;99.90;;;;;;5033883;28;20423;-70
2022/01/28 08:30:29;;;;;;;4.63;1.33;;;4.10;99.90;;;;;;5034227;28;20053;-70
2022/01/28 08:32:57;;;;;;;7.43;1.17;;;4.10;99.90;;;;;;5033965;28;20057;-70
2022/01/28 08:35:29;;;;;;;13.63;2.20;;;4.00;99.90;;;;;;5033549;28;20084;-70
2022/01/28 08:37:57;;;;;;;7.50;1.53;;;4.10;99.90;;;;;;5033700;28;20111;-70
2022/01/28 08:40:25;;;;;;;12.17;1.67;;;4.10;99.90;;;;;;5033721;28;20417;-70
2022/01/28 08:42:54;;;;;;;6.10;1.20;;;4.10;99.90;;;;;;5033485;28;20568;-70
2022/01/28 08:45:21;;;;;;;6.27;1.37;;;4.10;99.90;;;;;;5033410;28;20475;-70
2022/01/28 08:47:49;;;;;;;6.67;1.43;;;4.00;99.90;;;;;;5033943;28;20057;-70
2022/01/28 08:50:16;;;;;;;7.63;1.37;;;4.00;99.90;;;;;;5033698;28;20548;-70
2022/01/28 08:52:46;;;;;;;7.30;1.67;;;4.00;99.90;;;;;;5033356;28;20081;-70
2022/01/28 08:55:14;;;;;;;13.47;2.40;;;4.00;99.90;;;;;;5033125;28;20050;-70
2022/01/28 08:57:43;;;;;;;12.20;1.87;;;3.90;99.90;;;;;;5033170;28;20076;-70
2022/01/28 09:00:17;;;;;;;9.30;1.50;;;3.90;99.90;;;;;;5033404;28;20485;-70
2022/01/28 09:02:44;;;;;;;9.23;1.90;;;3.90;99.90;;;;;;5033177;28;20567;-70
2022/01/28 09:05:11;;;;;;;8.87;1.77;;;3.90;99.90;;;;;;5032872;28;20136;-70
2022/01/28 09:07:38;;;;;;;7.17;1.60;;;3.90;99.90;;;;;;5033203;28;20081;-70
2022/01/28 09:10:13;;;;;;;7.27;1.60;;;3.90;99.90;;;;;;5033221;28;20089;-70
2022/01/28 09:12:49;;;;;;;9.13;1.73;;;3.80;99.90;;;;;;5032335;28;20139;-70
2022/01/28 09:15:17;;;;;;;10.77;1.83;;;3.90;99.90;;;;;;5033292;28;20072;-70
2022/01/28 09:17:45;;;;;;;7.07;1.70;;;3.90;99.90;;;;;;5033034;28;20117;-70
2022/01/28 09:20:12;;;;;;;6.33;1.67;;;4.00;99.90;;;;;;5033007;28;20493;-70
2022/01/28 09:22:38;;;;;;;7.17;1.50;;;4.10;99.90;;;;;;5032750;28;20046;-70
2022/01/28 09:25:06;;;;;;;8.37;1.70;;;4.10;99.90;;;;;;5032867;28;20049;-70
2022/01/28 09:27:33;;;;;;;7.70;1.43;;;4.00;99.90;;;;;;5038982;28;20115;-70
2022/01/28 09:30:00;;;;;;;10.17;1.83;;;4.10;99.90;;;;;;5035174;28;20092;-70
2022/01/28 09:32:29;;;;;;;6.53;1.27;;;4.20;99.90;;;;;;5032915;28;20064;-70
2022/01/28 09:34:55;;;;;;;6.80;1.50;;;4.20;99.90;;;;;;5032585;28;20045;-70
2022/01/28 09:37:56;;;;;;;8.40;1.60;;;4.20;99.90;;;;;;5034871;28;20573;-70
2022/01/28 09:40:24;;;;;;;9.77;1.90;;;4.30;99.90;;;;;;5036615;28;20492;-70
2022/01/28 09:42:52;;;;;;;9.63;1.77;;;4.30;99.90;;;;;;5034375;28;20089;-70
2022/01/28 09:45:23;;;;;;;8.57;1.60;;;4.30;99.90;;;;;;5032727;28;20099;-70
2022/01/28 09:47:54;;;;;;;10.50;1.90;;;4.30;99.90;;;;;;5033361;28;20050;-70
2022/01/28 09:50:22;;;;;;;6.20;1.70;;;4.30;99.90;;;;;;5033133;28;20119;-70
2022/01/28 09:52:50;;;;;;;7.77;1.67;;;4.30;99.90;;;;;;5032912;28;20076;-70
2022/01/28 09:55:17;;;;;;;10.17;1.87;;;4.40;99.90;;;;;;5032804;28;20447;-70
2022/01/28 09:57:45;;;;;;;8.97;1.47;;;4.50;99.90;;;;;;5033163;28;20050;-70
2022/01/28 10:00:14;;;;;;;10.57;2.20;;;4.50;99.90;;;;;;5033074;28;20053;-70
2022/01/28 10:02:49;;;;;;;8.57;2.17;;;4.50;99.90;;;;;;5032345;28;20057;-70
2022/01/28 10:05:23;;;;;;;8.97;1.70;;;4.50;99.90;;;;;;5053518;22;20052;-70
2022/01/28 10:08:12;;;;;;;10.30;1.73;;;4.50;99.90;;;;;;5071827;28;20056;-70
2022/01/28 10:10:54;;;;;;;7.90;2.53;;;4.60;99.90;;;;;;5071940;28;20052;-70
2022/01/28 10:13:27;;;;;;;9.90;1.63;;;4.60;99.90;;;;;;5072168;28;20060;-70
2022/01/28 10:15:59;;;;;;;9.97;2.07;;;4.60;99.90;;;;;;5071665;28;20106;-70
2022/01/28 10:18:46;;;;;;;6.93;1.30;;;4.70;99.90;;;;;;5071704;28;20048;-70
2022/01/28 10:21:32;;;;;;;6.35;1.88;;;4.70;99.90;;;;;;5071875;28;20053;-70
2022/01/28 10:24:09;;;;;;;10.80;2.47;;;4.80;99.90;;;;;;5071855;28;20076;-70
2022/01/28 10:26:38;;;;;;;9.90;1.77;;;4.80;99.90;;;;;;5072069;28;20478;-70
2022/01/28 10:29:07;;;;;;;8.10;2.00;;;4.70;99.90;;;;;;5071859;28;20055;-70
2022/01/28 10:31:36;;;;;;;12.20;2.43;;;4.70;99.90;;;;;;5071832;28;20136;-70
2022/01/28 10:34:14;;;;;;;7.00;1.53;;;4.50;99.90;;;;;;5071924;28;20468;-70
2022/01/28 10:36:43;;;;;;;11.23;1.77;;;4.60;99.90;;;;;;5071828;28;20049;-70
2022/01/28 10:39:15;;;;;;;13.67;1.80;;;4.60;99.90;;;;;;5071616;28;20132;-70
2022/01/28 10:41:54;;;;;;;13.05;2.20;;;4.60;99.90;;;;;;5071378;28;20151;-70
2022/01/28 10:44:21;;;;;;;7.10;1.50;;;4.60;99.90;;;;;;5071716;28;20078;-70
2022/01/28 10:46:55;;;;;;;10.50;1.50;;;4.60;99.90;;;;;;5071426;28;20135;-70
2022/01/28 10:49:31;;;;;;;6.95;2.03;;;4.70;99.90;;;;;;5071790;28;20139;-70
2022/01/28 10:52:06;;;;;;;13.48;2.22;;;4.60;99.90;;;;;;5071319;28;20140;-69
2022/01/28 10:54:35;;;;;;;12.07;1.83;;;4.70;99.90;;;;;;5071425;28;20059;-69
2022/01/28 10:57:04;;;;;;;12.88;1.70;;;4.70;99.90;;;;;;5071305;28;20044;-70
2022/01/28 10:59:32;;;;;;;15.15;3.67;;;4.80;99.90;;;;;;5071363;28;20128;-70
2022/01/28 11:02:00;;;;;;;12.23;2.20;;;4.80;99.90;;;;;;5071124;28;20139;-70
2022/01/28 11:04:27;;;;;;;9.55;1.70;;;4.80;99.90;;;;;;5071827;28;20059;-69
2022/01/28 11:06:56;;;;;;;19.85;2.30;;;4.80;99.90;;;;;;5072361;28;20154;-69
2022/01/28 11:09:25;;;;;;;7.60;2.05;;;4.90;99.90;;;;;;5071884;28;20080;-69
2022/01/28 11:11:53;;;;;;;14.15;2.13;;;4.90;99.90;;;;;;5071989;28;20098;-69
2022/01/28 11:14:20;;;;;;;10.30;2.38;;;4.90;99.90;;;;;;5071830;28;20087;-70
2022/01/28 11:16:48;;;;;;;16.42;3.40;;;5.00;99.90;;;;;;5071327;28;20135;-69
2022/01/28 11:19:18;;;;;;;11.90;2.25;;;4.90;99.90;;;;;;5071246;28;20049;-69
2022/01/28 11:22:08;;;;;;;11.82;2.50;;;4.90;99.90;;;;;;5071165;28;20505;-69
2022/01/28 11:25:05;;;;;;;12.30;1.95;;;4.90;99.90;;;;;;5071308;28;20092;-69
2022/01/28 11:27:35;;;;;;;10.07;1.88;;;4.90;99.90;;;;;;5071823;28;20120;-69
2022/01/28 11:30:16;;;;;;;12.60;2.03;;;5.00;99.90;;;;;;5071298;28;20630;-69
2022/01/28 11:32:59;;;;;;;10.65;2.22;;;5.00;99.90;;;;;;5071015;28;20132;-70
2022/01/28 11:35:27;;;;;;;10.13;1.80;;;5.10;99.90;;;;;;5073623;28;20061;-69
2022/01/28 11:38:00;;;;;;;13.25;2.10;;;5.10;99.90;;;;;;5075803;28;20156;-69
2022/01/28 11:40:41;;;;;;;16.45;1.77;;;5.10;99.90;;;;;;5075627;28;20496;-70
2022/01/28 11:43:18;;;;;;;13.63;1.88;;;5.00;99.90;;;;;;5073986;28;20135;-69
2022/01/28 11:45:45;;;;;;;12.80;2.15;;;5.10;99.90;;;;;;5071256;28;20084;-69
2022/01/28 11:48:12;;;;;;;9.65;2.03;;;5.00;99.90;;;;;;5054835;28;20136;-69
2022/01/28 11:50:39;;;;;;;10.80;1.77;;;5.10;99.90;;;;;;5054823;28;20135;-69
2022/01/28 11:53:22;;;;;;;10.75;2.03;;;5.10;99.90;;;;;;5055755;28;20088;-69
2022/01/28 11:56:01;;;;;;;8.77;2.08;;;5.10;99.90;;;;;;5074377;28;20044;-69
2022/01/28 11:58:52;;;;;;;13.27;1.73;;;5.10;99.90;;;;;;5074443;28;20135;-69
2022/01/28 12:01:23;;;;;;;15.88;2.50;;;5.10;99.90;;;;;;5074516;28;20132;-69
2022/01/28 12:03:50;;;;;;;9.18;2.80;;;5.10;99.90;;;;;;5074153;28;20578;-69
2022/01/28 12:06:18;;;;;;;7.07;1.90;;;5.20;99.90;;;;;;5074026;28;20052;-69
2022/01/28 12:08:46;;;;;;;12.20;2.25;;;5.10;99.90;;;;;;5074188;28;20131;-69
2022/01/28 12:11:43;;;;;;;15.60;2.40;;;5.20;99.90;;;;;;5074231;28;20048;-69
2022/01/28 12:14:13;;;;;;;10.02;2.40;;;5.20;99.90;;;;;;5074278;28;20062;-69
2022/01/28 12:16:43;;;;;;;13.68;2.53;;;5.20;99.90;;;;;;5074365;28;20057;-69
2022/01/28 12:19:16;;;;;;;15.60;2.67;;;5.10;99.90;;;;;;5074137;28;20058;-69
2022/01/28 12:22:04;;;;;;;13.77;2.17;;;5.20;99.90;;;;;;5074253;28;20136;-69
2022/01/28 12:24:33;;;;;;;11.15;1.92;;;5.20;99.90;;;;;;5074118;28;20464;-69
2022/01/28 12:27:04;;;;;;;15.60;2.00;;;5.30;99.90;;;;;;5074074;28;20061;-69
2022/01/28 12:29:33;;;;;;;14.52;2.00;;;5.30;99.90;;;;;;5073809;28;20048;-69
2022/01/28 12:32:01;;;;;;;12.02;1.83;;;5.30;99.90;;;;;;5073821;28;20135;-69
2022/01/28 12:34:28;;;;;;;12.13;2.10;;;5.40;99.90;;;;;;5073983;28;20143;-69
2022/01/28 12:36:58;;;;;;;16.35;2.70;;;5.60;99.90;;;;;;5073649;28;20131;-69
2022/01/28 12:39:36;;;;;;;9.68;1.67;;;5.50;99.90;;;;;;5074424;28;20060;-69
2022/01/28 12:42:09;;;;;;;11.80;2.40;;;5.50;99.90;;;;;;5073918;28;20436;-69
2022/01/28 12:44:38;;;;;;;11.70;2.05;;;5.60;99.90;;;;;;5074255;28;20052;-69
2022/01/28 12:47:09;;;;;;;12.77;1.80;;;5.60;99.90;;;;;;5073479;28;20147;-69
2022/01/28 12:49:37;;;;;;;12.25;2.13;;;5.70;99.90;;;;;;5073629;28;20052;-69
2022/01/28 12:52:07;;;;;;;10.80;1.77;;;5.80;99.90;;;;;;5073394;28;20048;-69
2022/01/28 12:54:37;;;;;;;14.13;2.92;;;5.70;99.90;;;;;;5073159;28;20149;-69
2022/01/28 12:57:07;;;;;;;12.68;2.05;;;5.80;99.90;;;;;;5073011;28;20108;-69
2022/01/28 12:59:34;;;;;;;9.80;1.92;;;5.80;99.90;;;;;;5073212;28;20135;-69
2022/01/28 13:02:01;;;;;;;13.13;2.65;;;5.90;99.90;;;;;;5073077;28;20127;-69
2022/01/28 13:04:51;;;;;;;12.88;2.00;;;5.90;99.90;;;;;;5072807;28;20045;-69
2022/01/28 13:10:04;;;;;;;13.15;1.95;;;5.70;99.90;;;;;;5073252;28;20102;-69
2022/01/28 13:12:33;;;;;;;12.07;2.25;;;5.60;99.90;;;;;;5073535;28;20219;-69
2022/01/28 13:15:09;;;;;;;13.57;2.05;;;5.50;99.90;;;;;;5074075;28;20131;-69
2022/01/28 13:17:36;;;;;;;8.77;1.63;;;5.50;99.90;;;;;;5072670;28;20135;-69
2022/01/28 13:20:05;;;;;;;12.30;2.35;;;5.40;99.90;;;;;;5072692;28;20457;-69
2022/01/28 13:22:33;;;;;;;15.05;3.03;;;5.40;99.90;;;;;;5072689;28;20569;-72
2022/01/28 13:25:00;;;;;;;12.35;2.70;;;5.40;99.90;;;;;;5072331;28;20131;-69
2022/01/28 13:27:41;;;;;;;11.00;1.92;;;5.40;99.90;;;;;;5072632;28;20461;-69
2022/01/28 13:30:13;;;;;;;13.65;2.45;;;5.50;99.90;;;;;;5072592;28;20132;-69
2022/01/28 13:32:43;;;;;;;12.77;2.47;;;5.40;99.90;;;;;;5072687;28;20483;-69
2022/01/28 13:35:14;;;;;;;12.02;2.75;;;5.50;99.90;;;;;;5072635;28;20048;-69
2022/01/28 13:37:42;;;;;;;7.97;2.05;;;5.50;99.90;;;;;;5072389;28;20044;-69
2022/01/28 13:40:12;;;;;;;14.23;1.60;;;5.40;99.90;;;;;;5072324;28;20106;-69
2022/01/28 13:42:56;;;;;;;11.85;1.98;;;5.30;99.90;;;;;;5072484;28;20049;-69
2022/01/28 13:45:34;;;;;;;13.57;1.90;;;5.30;99.90;;;;;;5072222;28;20048;-69
2022/01/28 13:48:02;;;;;;;9.27;2.17;;;5.30;99.90;;;;;;5072335;28;20097;-69
2022/01/28 13:50:31;;;;;;;15.40;2.42;;;5.30;99.90;;;;;;5072443;28;20492;-70
2022/01/28 13:56:10;;;;;;;8.98;1.92;;;5.50;99.90;;;;;;5056426;28;20036;-71
2022/01/28 13:58:48;;;;;;;11.38;2.35;;;5.70;99.90;;;;;;5071364;28;20044;-71
2022/01/28 14:01:16;;;;;;;11.35;2.00;;;5.70;99.90;;;;;;5072049;28;20530;-71
2022/01/28 14:03:55;;;;;;;8.48;1.80;;;5.60;99.90;;;;;;5072357;28;20139;-71
2022/01/28 14:06:23;;;;;;;8.00;1.60;;;5.70;99.90;;;;;;5071837;28;20048;-71
2022/01/28 14:08:52;;;;;;;9.93;1.73;;;5.70;99.90;;;;;;5071792;28;20231;-71